Time;durP1;ratioP1;P1;durP2;ratioP2;P2;SDS_P1;SDS_P2;PMS_P1;PMS_P2;Temp;Humidity;BMP_temperature;BMP_pressure;BME280_temperature;BME280_humidity;BME280_pressure;Samples;Min_cycle;Max_cycle;Signal;HPM_P1;HPM_P2
2023/04/17 00:01:36;;;;;;;57.65;20.05;;;8.20;99.90;;;;;;5007319;28;20041;-62
2023/04/17 00:04:02;;;;;;;58.63;19.65;;;8.30;99.90;;;;;;5008478;28;20409;-62
2023/04/17 00:06:28;;;;;;;65.60;18.48;;;8.30;99.90;;;;;;5001093;28;20034;-62
2023/04/17 00:08:54;;;;;;;54.50;18.05;;;8.30;99.90;;;;;;5006682;28;20392;-62
2023/04/17 00:11:20;;;;;;;57.40;19.05;;;8.30;99.90;;;;;;5008998;28;20125;-62
2023/04/17 00:13:46;;;;;;;54.90;17.63;;;8.30;99.90;;;;;;5008326;28;20045;-63
2023/04/17 00:16:12;;;;;;;56.83;17.98;;;8.20;99.90;;;;;;5005778;28;20033;-62
2023/04/17 00:18:41;;;;;;;51.53;18.75;;;8.30;99.90;;;;;;5008898;28;20205;-62
2023/04/17 00:21:07;;;;;;;58.17;18.13;;;8.20;99.90;;;;;;5007411;28;20384;-62
2023/04/17 00:23:32;;;;;;;59.58;18.80;;;8.20;99.90;;;;;;5008625;28;20033;-62
2023/04/17 00:25:58;;;;;;;48.90;17.75;;;8.20;99.90;;;;;;5008362;28;20070;-62
2023/04/17 00:28:24;;;;;;;52.95;17.70;;;8.20;99.90;;;;;;4994942;28;20046;-62
2023/04/17 00:30:49;;;;;;;49.92;17.70;;;8.20;99.90;;;;;;5006987;28;20091;-62
2023/04/17 00:33:15;;;;;;;51.42;17.08;;;8.20;99.90;;;;;;5008091;28;20037;-62
2023/04/17 00:35:41;;;;;;;49.53;17.67;;;8.20;99.90;;;;;;5008721;28;20484;-62
2023/04/17 00:38:08;;;;;;;46.53;16.55;;;8.20;99.90;;;;;;5006524;28;20042;-62
2023/04/17 00:40:34;;;;;;;49.33;17.42;;;8.10;99.90;;;;;;5008589;28;20117;-62
2023/04/17 00:43:01;;;;;;;42.85;17.58;;;8.20;99.90;;;;;;5008284;28;20456;-62
2023/04/17 00:45:27;;;;;;;54.42;18.42;;;8.10;99.90;;;;;;5007900;28;20511;-63
2023/04/17 00:47:54;;;;;;;49.13;18.00;;;8.10;99.90;;;;;;5006381;28;20050;-62
2023/04/17 00:50:20;;;;;;;52.47;19.23;;;8.10;99.90;;;;;;5006209;28;20452;-62
2023/04/17 00:52:46;;;;;;;48.85;18.20;;;8.20;99.90;;;;;;4990503;28;20041;-62
2023/04/17 00:55:13;;;;;;;58.15;20.35;;;8.10;99.90;;;;;;5018007;28;20499;-62
2023/04/17 00:57:41;;;;;;;63.10;20.88;;;8.10;99.90;;;;;;4994278;28;20466;-62
2023/04/17 01:00:08;;;;;;;48.83;19.23;;;8.10;99.90;;;;;;4999852;28;20049;-62
2023/04/17 01:02:34;;;;;;;53.47;19.92;;;8.10;99.90;;;;;;5006701;28;20053;-63
2023/04/17 01:05:00;;;;;;;53.13;21.35;;;8.20;99.90;;;;;;5006344;28;20417;-62
2023/04/17 01:07:26;;;;;;;71.75;21.30;;;8.10;99.90;;;;;;5007775;28;20038;-62
2023/04/17 01:09:53;;;;;;;72.00;21.95;;;8.10;99.90;;;;;;4999873;28;20457;-62
2023/04/17 01:12:24;;;;;;;62.15;21.70;;;8.10;99.90;;;;;;5007472;28;20050;-62
2023/04/17 01:14:51;;;;;;;57.22;20.85;;;8.10;99.90;;;;;;4992829;28;20503;-63
2023/04/17 01:17:20;;;;;;;64.03;21.75;;;8.10;99.90;;;;;;5007571;28;20464;-62
2023/04/17 01:19:47;;;;;;;71.30;21.20;;;8.10;99.90;;;;;;5003180;28;20551;-62
2023/04/17 01:22:17;;;;;;;50.38;22.15;;;8.20;99.90;;;;;;5006392;28;20053;-62
2023/04/17 01:24:43;;;;;;;58.40;20.15;;;8.20;99.90;;;;;;5007211;28;20034;-63
2023/04/17 01:27:12;;;;;;;65.80;23.83;;;8.20;99.90;;;;;;5007518;28;20057;-62
2023/04/17 01:29:39;;;;;;;60.10;23.67;;;8.20;99.90;;;;;;5004076;28;20077;-63
2023/04/17 01:32:05;;;;;;;59.45;22.85;;;8.30;99.90;;;;;;4997407;28;20048;-62
2023/04/17 01:34:31;;;;;;;51.00;21.55;;;8.20;99.90;;;;;;5007406;28;20404;-62
2023/04/17 01:36:57;;;;;;;54.72;21.30;;;8.20;99.90;;;;;;5007463;28;20049;-62
2023/04/17 01:39:22;;;;;;;54.00;20.77;;;8.20;99.90;;;;;;5007564;28;20050;-62
2023/04/17 01:41:48;;;;;;;46.42;20.73;;;8.30;99.90;;;;;;4997127;28;20184;-62
2023/04/17 01:44:14;;;;;;;55.47;20.02;;;8.30;99.90;;;;;;5005775;28;20046;-62
2023/04/17 01:46:40;;;;;;;47.33;19.17;;;8.20;99.90;;;;;;5007093;28;20163;-62
2023/04/17 01:49:05;;;;;;;47.78;18.88;;;8.30;99.90;;;;;;5006786;28;20056;-62
2023/04/17 01:51:31;;;;;;;43.78;17.50;;;8.30;99.90;;;;;;5005319;28;20125;-62
2023/04/17 01:53:57;;;;;;;49.67;19.77;;;8.40;99.90;;;;;;5007027;28;20504;-62
2023/04/17 01:56:23;;;;;;;49.25;19.05;;;8.40;99.90;;;;;;5007269;28;20049;-62
2023/04/17 01:58:50;;;;;;;40.80;17.65;;;8.40;99.90;;;;;;5007526;28;20042;-62
2023/04/17 02:01:16;;;;;;;45.85;18.35;;;8.40;99.90;;;;;;5004963;28;20073;-62
2023/04/17 02:03:41;;;;;;;41.22;18.02;;;8.50;99.90;;;;;;5006669;28;20089;-62
2023/04/17 02:06:07;;;;;;;39.40;16.95;;;8.40;99.90;;;;;;5006876;28;20494;-62
2023/04/17 02:08:33;;;;;;;41.22;18.75;;;8.50;99.90;;;;;;5008268;28;20152;-62
2023/04/17 02:10:59;;;;;;;40.17;18.13;;;8.40;99.90;;;;;;5008194;28;20067;-62
2023/04/17 02:13:24;;;;;;;38.47;17.20;;;8.50;99.90;;;;;;5011164;28;20484;-62
2023/04/17 02:15:50;;;;;;;40.72;17.27;;;8.40;99.90;;;;;;5010093;28;20045;-62
2023/04/17 02:18:16;;;;;;;41.47;17.52;;;8.50;99.90;;;;;;5010760;28;20046;-62
2023/04/17 02:20:42;;;;;;;38.63;16.63;;;8.40;99.90;;;;;;5003270;28;20070;-62
2023/04/17 02:23:07;;;;;;;37.88;16.92;;;8.40;99.90;;;;;;5025649;28;20049;-63
2023/04/17 02:25:33;;;;;;;41.47;17.30;;;8.40;99.90;;;;;;5007357;28;20050;-62
2023/04/17 02:27:59;;;;;;;35.03;16.35;;;8.40;99.90;;;;;;5007637;28;20046;-62
2023/04/17 02:30:26;;;;;;;32.22;16.17;;;8.50;99.90;;;;;;5005904;28;20046;-62
2023/04/17 02:32:53;;;;;;;39.72;16.90;;;8.40;99.90;;;;;;5009694;28;20108;-62
2023/04/17 02:35:20;;;;;;;34.83;16.58;;;8.40;99.90;;;;;;5008768;28;20050;-62
2023/04/17 02:37:46;;;;;;;34.85;16.85;;;8.40;99.90;;;;;;5004618;28;20096;-62
2023/04/17 02:40:13;;;;;;;36.90;17.90;;;8.40;99.90;;;;;;5008284;28;20129;-62
2023/04/17 02:42:39;;;;;;;38.55;18.05;;;8.30;99.90;;;;;;5002414;28;20100;-62
2023/04/17 02:45:05;;;;;;;28.38;15.75;;;8.30;99.90;;;;;;5007731;28;20446;-62
2023/04/17 02:47:31;;;;;;;39.50;18.35;;;8.30;99.90;;;;;;5010613;28;20037;-62
2023/04/17 02:49:58;;;;;;;38.05;18.02;;;8.30;99.90;;;;;;5024561;28;20530;-62
2023/04/17 02:52:26;;;;;;;40.75;17.67;;;8.20;99.90;;;;;;5010447;28;20045;-62
2023/04/17 02:54:51;;;;;;;44.88;19.30;;;8.20;99.90;;;;;;5008986;28;20054;-62
2023/04/17 02:57:17;;;;;;;45.08;17.63;;;8.20;99.90;;;;;;5008573;28;20057;-62
2023/04/17 02:59:43;;;;;;;40.30;19.02;;;8.20;99.90;;;;;;5008859;28;20053;-63
2023/04/17 03:02:09;;;;;;;40.28;18.88;;;8.20;99.90;;;;;;5006584;28;20041;-63
2023/04/17 03:04:37;;;;;;;31.48;16.92;;;8.20;99.90;;;;;;5010012;28;20136;-62
2023/04/17 03:07:03;;;;;;;28.25;17.30;;;8.20;99.90;;;;;;5009933;28;20115;-63
2023/04/17 03:09:29;;;;;;;33.90;17.42;;;8.20;99.90;;;;;;5009588;28;20128;-62
2023/04/17 03:11:55;;;;;;;25.42;16.25;;;8.10;99.90;;;;;;5010236;28;20053;-62
2023/04/17 03:14:21;;;;;;;31.40;15.70;;;8.10;99.90;;;;;;5009570;28;20741;-62
2023/04/17 03:16:47;;;;;;;32.20;16.42;;;8.10;99.90;;;;;;5010277;28;20132;-62
2023/04/17 03:19:12;;;;;;;37.78;19.55;;;8.10;99.90;;;;;;5006590;28;20304;-63
2023/04/17 03:21:38;;;;;;;38.40;19.30;;;8.10;99.90;;;;;;5009919;28;20054;-62
2023/04/17 03:24:04;;;;;;;31.08;16.95;;;8.10;99.90;;;;;;5009378;28;20129;-63
2023/04/17 03:26:30;;;;;;;40.53;18.35;;;8.00;99.90;;;;;;5009650;28;20049;-62
2023/04/17 03:28:56;;;;;;;34.15;18.00;;;8.10;99.90;;;;;;5008881;28;20042;-62
2023/04/17 03:31:22;;;;;;;36.22;17.52;;;8.10;99.90;;;;;;5024293;28;20049;-62
2023/04/17 03:33:48;;;;;;;32.75;16.88;;;8.10;99.90;;;;;;5010050;28;20092;-62
2023/04/17 03:36:16;;;;;;;36.53;18.23;;;8.10;99.90;;;;;;5008812;28;20148;-62
2023/04/17 03:38:42;;;;;;;27.95;16.23;;;8.10;99.90;;;;;;5009499;28;20485;-63
2023/04/17 03:41:09;;;;;;;35.30;16.30;;;8.00;99.90;;;;;;5019564;28;20053;-62
2023/04/17 03:43:34;;;;;;;32.42;15.07;;;8.00;99.90;;;;;;5008693;28;20104;-62
2023/04/17 03:46:01;;;;;;;38.60;14.27;;;8.00;99.90;;;;;;5008065;28;20054;-63
2023/04/17 03:48:26;;;;;;;24.48;14.15;;;8.00;99.90;;;;;;5007646;28;20113;-62
2023/04/17 03:50:52;;;;;;;27.58;13.80;;;8.00;99.90;;;;;;5008344;28;20057;-62
2023/04/17 03:53:18;;;;;;;26.45;14.10;;;8.00;99.90;;;;;;5007597;28;20076;-62
2023/04/17 03:55:44;;;;;;;26.52;13.18;;;7.90;99.90;;;;;;5009486;28;20117;-62
2023/04/17 03:58:10;;;;;;;24.58;14.20;;;8.00;99.90;;;;;;5008925;28;20482;-62
2023/04/17 04:00:37;;;;;;;29.10;13.80;;;7.90;99.90;;;;;;5007625;28;20046;-62
2023/04/17 04:03:03;;;;;;;28.88;14.50;;;7.90;99.90;;;;;;5008356;28;20062;-62
2023/04/17 04:05:29;;;;;;;31.02;14.88;;;7.90;99.90;;;;;;5008714;28;20100;-62
2023/04/17 04:07:55;;;;;;;25.38;14.43;;;7.90;99.90;;;;;;5009340;28;20046;-62
2023/04/17 04:10:21;;;;;;;26.88;13.50;;;7.90;99.90;;;;;;5008466;28;20053;-62
2023/04/17 04:12:47;;;;;;;26.45;13.85;;;7.90;99.90;;;;;;4996284;28;20121;-62
2023/04/17 04:15:13;;;;;;;33.90;13.20;;;7.90;99.90;;;;;;5008294;28;20050;-62
2023/04/17 04:17:38;;;;;;;28.60;12.60;;;8.00;99.90;;;;;;5008736;28;20050;-62
2023/04/17 04:20:07;;;;;;;25.30;12.55;;;8.00;99.90;;;;;;5007227;28;20052;-62
2023/04/17 04:22:33;;;;;;;25.25;13.10;;;8.00;99.90;;;;;;4996613;28;20088;-62
2023/04/17 04:24:59;;;;;;;23.55;12.32;;;8.00;99.90;;;;;;4994015;28;20096;-62
2023/04/17 04:27:26;;;;;;;23.58;13.65;;;8.00;99.90;;;;;;5008269;28;20389;-62
2023/04/17 04:29:58;;;;;;;26.35;12.38;;;8.00;99.90;;;;;;4994820;28;20050;-62
2023/04/17 04:32:24;;;;;;;23.05;13.48;;;8.00;99.90;;;;;;5006105;28;20073;-62
2023/04/17 04:34:50;;;;;;;22.30;13.82;;;8.00;99.90;;;;;;5008516;28;20050;-62
2023/04/17 04:37:20;;;;;;;24.20;13.10;;;8.00;99.90;;;;;;5008081;28;20439;-62
2023/04/17 04:39:52;;;;;;;21.65;13.48;;;8.00;99.90;;;;;;5007971;28;20085;-62
2023/04/17 04:42:21;;;;;;;21.38;12.38;;;8.00;99.90;;;;;;5008366;28;20525;-62
2023/04/17 04:44:46;;;;;;;26.73;13.15;;;8.00;99.90;;;;;;5003940;28;20458;-62
2023/04/17 04:47:12;;;;;;;25.15;12.45;;;8.00;99.90;;;;;;5008532;28;20045;-62
2023/04/17 04:49:38;;;;;;;17.08;12.40;;;8.00;99.90;;;;;;5008305;28;20129;-62
2023/04/17 04:52:04;;;;;;;21.95;12.00;;;8.00;99.90;;;;;;5008037;28;20042;-62
2023/04/17 04:54:30;;;;;;;20.90;12.73;;;8.00;99.90;;;;;;5005598;28;20086;-62
2023/04/17 04:56:55;;;;;;;23.35;13.15;;;8.00;99.90;;;;;;5007985;28;20042;-62
2023/04/17 04:59:21;;;;;;;24.25;12.77;;;8.10;99.90;;;;;;5007726;28;20052;-62
2023/04/17 05:01:48;;;;;;;19.27;11.88;;;8.00;99.90;;;;;;5006477;28;20034;-62
2023/04/17 05:04:14;;;;;;;20.65;11.98;;;8.00;99.90;;;;;;5006815;28;20064;-62
2023/04/17 05:06:40;;;;;;;21.10;12.32;;;8.00;99.90;;;;;;5007934;28;20208;-61
2023/04/17 05:09:06;;;;;;;19.33;11.32;;;8.00;99.90;;;;;;5007791;28;20504;-62
2023/04/17 05:11:32;;;;;;;26.00;12.93;;;8.00;99.90;;;;;;5006290;28;20042;-62
2023/04/17 05:13:58;;;;;;;20.50;13.05;;;8.00;99.90;;;;;;5006683;28;20049;-62
2023/04/17 05:16:24;;;;;;;21.52;13.20;;;8.10;99.90;;;;;;5006710;28;20253;-62
2023/04/17 05:18:49;;;;;;;24.95;13.25;;;8.00;99.90;;;;;;5007394;28;20046;-62
2023/04/17 05:21:15;;;;;;;24.77;14.77;;;8.00;99.90;;;;;;5007703;28;20045;-62
2023/04/17 05:23:41;;;;;;;27.33;15.70;;;8.10;99.90;;;;;;5007139;28;20404;-62
2023/04/17 05:26:07;;;;;;;26.27;15.07;;;8.10;99.90;;;;;;5006714;28;20041;-62
2023/04/17 05:28:32;;;;;;;31.33;15.40;;;8.10;99.90;;;;;;5006832;28;20423;-62
2023/04/17 05:30:58;;;;;;;23.65;15.13;;;8.10;99.90;;;;;;5007645;28;20048;-62
2023/04/17 05:33:24;;;;;;;34.33;14.68;;;8.10;99.90;;;;;;5006584;28;20566;-62
2023/04/17 05:35:50;;;;;;;26.38;15.82;;;8.20;99.90;;;;;;5003336;28;20042;-62
2023/04/17 05:38:16;;;;;;;29.00;16.70;;;8.20;99.90;;;;;;5005480;28;20510;-62
2023/04/17 05:40:42;;;;;;;28.00;16.90;;;8.20;99.90;;;;;;5005637;28;20400;-62
2023/04/17 05:43:09;;;;;;;28.45;16.80;;;8.20;99.90;;;;;;5006700;28;20048;-62
2023/04/17 05:45:35;;;;;;;32.33;16.73;;;8.30;99.90;;;;;;5005008;28;20103;-62
2023/04/17 05:48:01;;;;;;;34.97;17.77;;;8.30;99.90;;;;;;5001089;28;20045;-62
2023/04/17 05:50:27;;;;;;;29.73;16.80;;;8.30;99.90;;;;;;5005305;28;20038;-62
2023/04/17 05:52:53;;;;;;;29.58;15.88;;;8.40;99.90;;;;;;5006695;28;20496;-62
2023/04/17 05:55:19;;;;;;;29.38;16.45;;;8.40;99.90;;;;;;5005826;28;20060;-62
2023/04/17 05:57:45;;;;;;;25.15;15.18;;;8.40;99.90;;;;;;5003788;28;20477;-62
2023/04/17 06:00:12;;;;;;;25.10;15.88;;;8.50;99.90;;;;;;5007328;28;20564;-62
2023/04/17 06:02:42;;;;;;;33.67;15.88;;;8.50;99.90;;;;;;5006720;28;20044;-62
2023/04/17 06:05:08;;;;;;;28.92;16.02;;;8.60;99.90;;;;;;5006818;28;20132;-62
2023/04/17 06:07:37;;;;;;;30.55;16.20;;;8.60;99.90;;;;;;5004806;28;20045;-63
2023/04/17 06:10:05;;;;;;;27.92;15.20;;;8.60;99.90;;;;;;5006783;28;20041;-62
2023/04/17 06:12:31;;;;;;;26.55;15.88;;;8.60;99.90;;;;;;5001973;28;20594;-62
2023/04/17 06:14:57;;;;;;;28.35;15.55;;;8.70;99.90;;;;;;5006362;28;20167;-62
2023/04/17 06:17:23;;;;;;;25.77;14.77;;;8.80;99.90;;;;;;5002420;28;20482;-63
2023/04/17 06:19:49;;;;;;;20.17;14.65;;;8.80;99.90;;;;;;5006852;28;20053;-63
2023/04/17 06:22:15;;;;;;;29.15;15.13;;;8.90;99.90;;;;;;5007085;28;20054;-63
2023/04/17 06:24:41;;;;;;;24.73;15.50;;;8.90;99.90;;;;;;5006680;28;20068;-62
2023/04/17 06:27:06;;;;;;;24.88;15.95;;;8.90;99.90;;;;;;5007207;28;20444;-62
2023/04/17 06:29:32;;;;;;;27.35;14.73;;;9.00;99.90;;;;;;5006072;28;20045;-62
2023/04/17 06:31:58;;;;;;;24.45;14.32;;;9.00;99.90;;;;;;5005255;28;20089;-62
2023/04/17 06:34:23;;;;;;;23.02;14.63;;;9.10;99.90;;;;;;5007004;28;20104;-63
2023/04/17 06:36:50;;;;;;;24.40;14.77;;;9.10;99.90;;;;;;5006369;28;20399;-63
2023/04/17 06:39:16;;;;;;;28.92;14.70;;;9.10;99.90;;;;;;5005859;28;20046;-62
2023/04/17 06:41:42;;;;;;;23.17;14.93;;;9.10;99.90;;;;;;5006090;28;20042;-63
2023/04/17 06:44:07;;;;;;;29.58;15.50;;;9.20;99.90;;;;;;5006874;28;20042;-62
2023/04/17 06:46:33;;;;;;;30.38;14.55;;;9.20;99.90;;;;;;5004910;28;20491;-62
2023/04/17 06:48:59;;;;;;;28.58;15.23;;;9.20;99.90;;;;;;5004063;28;20046;-62
2023/04/17 06:51:26;;;;;;;23.75;14.43;;;9.30;99.90;;;;;;5006653;28;20077;-62
2023/04/17 06:53:52;;;;;;;22.67;13.60;;;9.30;99.90;;;;;;5006352;28;20042;-62
2023/04/17 06:56:19;;;;;;;26.95;14.60;;;9.40;99.90;;;;;;5010459;28;20041;-63
2023/04/17 06:58:44;;;;;;;21.05;14.52;;;9.40;99.90;;;;;;5009690;28;20121;-63
2023/04/17 07:01:11;;;;;;;22.00;14.95;;;9.50;99.90;;;;;;5004316;28;20631;-62
2023/04/17 07:03:40;;;;;;;26.50;15.45;;;9.60;99.90;;;;;;5008708;28;20053;-63
2023/04/17 07:06:07;;;;;;;25.17;15.00;;;9.60;99.90;;;;;;5009991;28;20053;-62
2023/04/17 07:08:33;;;;;;;23.33;13.88;;;9.70;99.90;;;;;;5008613;28;20042;-63
2023/04/17 07:11:00;;;;;;;20.75;14.25;;;9.70;99.90;;;;;;5008162;28;20141;-62
2023/04/17 07:13:29;;;;;;;26.90;15.40;;;9.80;99.90;;;;;;5009400;28;20046;-62
2023/04/17 07:15:56;;;;;;;21.48;14.07;;;9.90;99.90;;;;;;5006508;28;20085;-63
2023/04/17 07:18:22;;;;;;;19.55;14.32;;;10.00;99.90;;;;;;5008897;28;20049;-62
2023/04/17 07:20:48;;;;;;;21.05;13.60;;;10.00;99.90;;;;;;5007074;28;20382;-62
2023/04/17 07:23:14;;;;;;;21.77;14.60;;;10.00;99.90;;;;;;5008984;28;20100;-62
2023/04/17 07:25:40;;;;;;;21.25;15.15;;;10.10;99.90;;;;;;5005697;28;20119;-62
2023/04/17 07:28:06;;;;;;;23.65;14.05;;;10.10;99.90;;;;;;4990268;28;20046;-62
2023/04/17 07:30:32;;;;;;;24.33;14.13;;;10.20;99.90;;;;;;5008173;28;20125;-62
2023/04/17 07:32:59;;;;;;;30.92;15.18;;;10.20;99.90;;;;;;5004650;28;20427;-62
2023/04/17 07:35:25;;;;;;;20.88;14.07;;;10.30;99.90;;;;;;4992022;28;20054;-63
2023/04/17 07:37:50;;;;;;;20.70;13.95;;;10.40;99.90;;;;;;5008796;28;20042;-62
2023/04/17 07:40:16;;;;;;;21.65;13.15;;;10.40;99.90;;;;;;5005758;28;20354;-62
2023/04/17 07:42:42;;;;;;;26.60;13.45;;;10.30;99.90;;;;;;5006438;28;20489;-63
2023/04/17 07:45:09;;;;;;;26.92;14.88;;;10.40;99.90;;;;;;5007294;28;20046;-62
2023/04/17 07:47:35;;;;;;;21.13;13.57;;;10.40;99.90;;;;;;5007134;28;20544;-63
2023/04/17 07:50:01;;;;;;;30.08;13.52;;;10.40;99.90;;;;;;5008629;28;20125;-63
2023/04/17 07:52:28;;;;;;;19.30;13.00;;;10.60;99.90;;;;;;5008577;28;20046;-62
2023/04/17 07:54:55;;;;;;;19.95;12.82;;;10.60;99.90;;;;;;5007850;28;20052;-63
2023/04/17 07:57:25;;;;;;;20.58;12.98;;;10.70;99.90;;;;;;5009281;28;20046;-63
2023/04/17 07:59:52;;;;;;;19.38;12.30;;;10.70;99.90;;;;;;5008469;28;20050;-63
2023/04/17 08:02:18;;;;;;;17.63;11.75;;;10.90;99.90;;;;;;5008439;28;20566;-63
2023/04/17 08:04:45;;;;;;;27.25;11.85;;;10.90;99.90;;;;;;5006746;28;20061;-63
2023/04/17 08:07:11;;;;;;;21.42;11.93;;;10.70;99.90;;;;;;5006487;28;20065;-63
2023/04/17 08:09:38;;;;;;;17.73;11.18;;;10.80;99.90;;;;;;5006772;28;20141;-63
2023/04/17 08:12:04;;;;;;;16.35;10.10;;;10.80;99.90;;;;;;5007613;28;20117;-63
2023/04/17 08:14:31;;;;;;;14.18;9.93;;;10.80;99.90;;;;;;5006470;28;20108;-63
2023/04/17 08:16:57;;;;;;;20.67;10.15;;;10.90;99.90;;;;;;5007310;28;20132;-63
2023/04/17 08:19:22;;;;;;;18.65;11.40;;;10.80;99.90;;;;;;5008196;28;20121;-63
2023/04/17 08:21:50;;;;;;;18.75;10.85;;;10.90;99.90;;;;;;5007079;28;20485;-63
2023/04/17 08:24:16;;;;;;;16.15;10.55;;;11.00;99.90;;;;;;5005928;28;20050;-63
2023/04/17 08:26:42;;;;;;;18.88;9.48;;;11.10;99.90;;;;;;5007207;28;20042;-62
2023/04/17 08:29:09;;;;;;;22.52;10.68;;;11.30;99.90;;;;;;5008239;28;20545;-62
2023/04/17 08:31:35;;;;;;;17.13;9.13;;;11.30;99.90;;;;;;5008585;28;20045;-62
2023/04/17 08:34:04;;;;;;;14.07;8.70;;;11.30;99.90;;;;;;5007704;28;20608;-62
2023/04/17 08:36:30;;;;;;;19.23;8.85;;;11.40;99.90;;;;;;5004971;28;20042;-62
2023/04/17 08:38:56;;;;;;;17.15;7.82;;;11.40;99.90;;;;;;5006896;28;20470;-63
2023/04/17 08:41:26;;;;;;;16.17;8.40;;;11.50;99.90;;;;;;5008264;28;20069;-62
2023/04/17 08:43:52;;;;;;;;;;;11.60;99.90;;;;;;5006815;28;20065;-62
2023/04/17 08:46:22;;;;;;;17.20;8.05;;;11.80;99.90;;;;;;5003902;28;19921;-62
2023/04/17 08:48:48;;;;;;;18.27;7.82;;;11.80;99.90;;;;;;5001889;28;20409;-62
2023/04/17 08:51:14;;;;;;;12.38;7.57;;;11.90;99.90;;;;;;5007567;28;20049;-62
2023/04/17 08:53:40;;;;;;;12.73;7.47;;;12.00;99.90;;;;;;5007808;28;20131;-62
2023/04/17 08:56:07;;;;;;;14.52;6.43;;;12.10;99.90;;;;;;5001313;28;20090;-62
2023/04/17 08:58:33;;;;;;;14.35;6.13;;;12.20;99.90;;;;;;5006722;28;20038;-62
2023/04/17 09:01:10;;;;;;;11.27;6.30;;;12.10;99.90;;;;;;4993888;28;20050;-62
2023/04/17 09:03:44;;;;;;;12.90;6.10;;;11.90;99.90;;;;;;5007598;28;20060;-62
2023/04/17 09:06:11;;;;;;;16.45;7.15;;;11.90;99.90;;;;;;5006429;28;20056;-62
2023/04/17 09:08:38;;;;;;;10.63;6.40;;;11.90;99.90;;;;;;5007203;28;20162;-62
2023/04/17 09:11:15;;;;;;;10.15;6.13;;;11.70;99.90;;;;;;5005404;28;20176;-62
2023/04/17 09:13:41;;;;;;;15.00;6.82;;;11.60;99.90;;;;;;5005776;28;20042;-62
2023/04/17 09:16:12;;;;;;;18.98;7.43;;;11.70;99.90;;;;;;5005311;28;20059;-62
2023/04/17 09:18:39;;;;;;;20.42;6.90;;;11.60;99.90;;;;;;5004619;28;20099;-62
2023/04/17 09:21:06;;;;;;;16.98;7.13;;;11.50;99.90;;;;;;5007140;28;20323;-62
2023/04/17 09:23:53;;;;;;;18.80;8.10;;;11.60;99.90;;;;;;5007494;28;20185;-62
2023/04/17 09:26:26;;;;;;;16.20;7.07;;;11.70;99.90;;;;;;5006079;28;20053;-62
2023/04/17 09:29:10;;;;;;;16.58;7.15;;;11.80;99.90;;;;;;5005605;28;20078;-62
2023/04/17 09:31:40;;;;;;;16.45;7.15;;;11.80;99.90;;;;;;5006772;28;20173;-62
2023/04/17 09:34:11;;;;;;;15.63;7.05;;;11.80;99.90;;;;;;5006849;28;20042;-63
2023/04/17 09:36:40;;;;;;;11.63;6.70;;;11.80;99.90;;;;;;5006056;28;20038;-62
2023/04/17 09:39:19;;;;;;;16.30;6.75;;;11.90;99.90;;;;;;5004125;28;20512;-62
2023/04/17 09:41:45;;;;;;;14.07;6.55;;;11.80;99.90;;;;;;5006208;28;20404;-62
2023/04/17 09:44:22;;;;;;;15.52;6.78;;;11.80;99.90;;;;;;5005961;28;20088;-62
2023/04/17 09:46:49;;;;;;;15.82;7.22;;;11.70;99.90;;;;;;5006893;28;20111;-62
2023/04/17 09:49:26;;;;;;;22.05;7.38;;;11.80;99.90;;;;;;5006433;28;20104;-63
2023/04/17 09:51:53;;;;;;;10.98;7.40;;;11.90;99.90;;;;;;5003749;28;20045;-64
2023/04/17 09:54:21;;;;;;;13.95;6.22;;;12.00;99.90;;;;;;5011926;28;20037;-63
2023/04/17 09:56:48;;;;;;;20.33;7.75;;;12.00;99.90;;;;;;5008800;28;20033;-64
2023/04/17 09:59:15;;;;;;;14.70;7.32;;;11.90;99.90;;;;;;5004939;28;20057;-64
2023/04/17 10:01:42;;;;;;;13.88;7.40;;;12.00;99.90;;;;;;5006248;28;20484;-63
2023/04/17 10:04:07;;;;;;;11.65;6.72;;;12.00;99.90;;;;;;5004662;28;20419;-64
2023/04/17 10:06:34;;;;;;;13.38;6.90;;;12.10;99.90;;;;;;5004667;28;20102;-64
2023/04/17 10:09:03;;;;;;;12.55;7.65;;;12.00;99.90;;;;;;5000719;28;20510;-64
2023/04/17 10:11:38;;;;;;;14.75;8.05;;;11.90;99.90;;;;;;5006200;28;20046;-64
2023/04/17 10:14:23;;;;;;;11.75;7.45;;;12.10;99.90;;;;;;5006434;28;20103;-63
2023/04/17 10:16:49;;;;;;;10.13;7.32;;;12.20;99.90;;;;;;5000080;28;20041;-63
2023/04/17 10:19:29;;;;;;;12.73;7.68;;;12.40;99.90;;;;;;5001347;28;20054;-64
2023/04/17 10:22:14;;;;;;;;;;;12.50;99.90;;;;;;5006746;28;20041;-64
2023/04/17 10:24:44;;;;;;;17.10;8.43;;;12.60;99.90;;;;;;5005781;28;19926;-64
2023/04/17 10:27:25;;;;;;;;;;;12.60;99.90;;;;;;5006495;28;20050;-64
2023/04/17 10:30:04;;;;;;;7.68;5.22;;;12.50;99.90;;;;;;5002195;28;19933;-64
2023/04/17 10:32:32;;;;;;;19.23;9.55;;;12.60;99.90;;;;;;5009108;28;20515;-64
2023/04/17 10:35:14;;;;;;;13.93;8.82;;;12.50;99.90;;;;;;5009002;28;20117;-64
2023/04/17 10:37:46;;;;;;;15.73;8.57;;;12.60;99.90;;;;;;5009534;28;20371;-64
2023/04/17 10:40:21;;;;;;;15.70;9.18;;;12.20;99.90;;;;;;5009395;28;20057;-64
2023/04/17 10:43:10;;;;;;;20.50;10.13;;;11.90;99.90;;;;;;5002963;28;20050;-63
2023/04/17 10:46:05;;;;;;;15.18;9.90;;;11.90;99.90;;;;;;5007712;28;20046;-64
2023/04/17 10:48:37;;;;;;;16.13;9.90;;;12.20;99.90;;;;;;5007326;28;20514;-64
2023/04/17 10:51:22;;;;;;;16.63;10.25;;;12.50;99.90;;;;;;5006792;28;20428;-64
2023/04/17 10:53:50;;;;;;;16.60;9.95;;;12.30;99.90;;;;;;5008395;28;20050;-64
2023/04/17 10:56:25;;;;;;;18.98;10.57;;;12.50;99.90;;;;;;5009004;28;20427;-64
2023/04/17 10:59:01;;;;;;;26.60;11.02;;;12.60;99.90;;;;;;5007995;28;20053;-63
2023/04/17 11:01:47;;;;;;;20.42;10.57;;;12.70;99.90;;;;;;4995971;28;20046;-64
2023/04/17 11:04:21;;;;;;;27.90;11.88;;;12.60;99.90;;;;;;5008633;28;20054;-63
2023/04/17 11:06:47;;;;;;;23.25;11.60;;;12.50;99.90;;;;;;5007675;28;20065;-63
2023/04/17 11:09:14;;;;;;;22.45;12.02;;;12.50;99.90;;;;;;5009006;28;20108;-64
2023/04/17 11:11:42;;;;;;;23.83;11.25;;;12.70;99.90;;;;;;5008391;28;20053;-64
2023/04/17 11:14:16;;;;;;;17.88;11.18;;;12.80;99.90;;;;;;5009543;28;20049;-64
2023/04/17 11:16:44;;;;;;;25.90;12.02;;;12.90;99.90;;;;;;5010044;28;20053;-64
2023/04/17 11:19:15;;;;;;;19.13;12.25;;;12.90;99.90;;;;;;5010783;28;20137;-63
2023/04/17 11:21:42;;;;;;;26.50;11.93;;;13.00;99.90;;;;;;4991167;28;20038;-64
2023/04/17 11:24:08;;;;;;;35.95;12.73;;;13.10;99.90;;;;;;5003066;28;20124;-64
2023/04/17 11:26:46;;;;;;;28.67;12.52;;;13.20;99.90;;;;;;5009085;28;20149;-63
2023/04/17 11:29:15;;;;;;;25.73;11.30;;;13.00;99.90;;;;;;5009363;28;20104;-63
2023/04/17 11:31:42;;;;;;;27.85;13.80;;;12.80;99.90;;;;;;5008452;28;20054;-63
2023/04/17 11:34:08;;;;;;;21.80;12.60;;;12.90;99.90;;;;;;5008267;28;20096;-63
2023/04/17 11:36:34;;;;;;;25.45;12.85;;;13.00;99.90;;;;;;5007839;28;20045;-63
2023/04/17 11:39:00;;;;;;;33.35;13.35;;;13.10;99.90;;;;;;5009023;28;20067;-63
2023/04/17 11:41:36;;;;;;;21.92;13.60;;;13.40;99.90;;;;;;5007382;28;20064;-63
2023/04/17 11:44:02;;;;;;;24.23;12.75;;;13.50;99.90;;;;;;5008313;28;20050;-63
2023/04/17 11:46:29;;;;;;;22.20;12.35;;;13.60;99.90;;;;;;5007339;28;20554;-64
2023/04/17 11:48:55;;;;;;;22.75;13.73;;;13.70;99.90;;;;;;5007090;28;20092;-64
2023/04/17 11:51:21;;;;;;;17.10;12.45;;;13.50;99.90;;;;;;5007930;28;20041;-64
2023/04/17 11:57:00;;;;;;;21.48;10.68;;;13.60;99.90;;;;;;5021078;22;20128;-64
2023/04/17 11:59:34;;;;;;;25.33;13.60;;;13.40;99.90;;;;;;5004427;28;20125;-64
2023/04/17 12:02:00;;;;;;;29.02;14.00;;;13.20;99.90;;;;;;4988320;28;20137;-64
2023/04/17 12:04:32;;;;;;;22.15;13.25;;;13.30;99.90;;;;;;5010805;28;20456;-64
2023/04/17 12:07:02;;;;;;;19.10;12.73;;;13.60;99.90;;;;;;5009487;28;20045;-64
2023/04/17 12:09:30;;;;;;;24.27;13.68;;;13.60;99.90;;;;;;5013610;28;20499;-64
2023/04/17 12:12:02;;;;;;;25.20;13.50;;;13.70;99.90;;;;;;5029838;28;20055;-64
2023/04/17 12:14:30;;;;;;;21.95;12.65;;;13.50;98.70;;;;;;5029342;28;20483;-64
2023/04/17 12:16:56;;;;;;;25.83;13.43;;;13.50;99.90;;;;;;5027259;28;20518;-64
2023/04/17 12:19:24;;;;;;;24.10;13.23;;;13.60;99.90;;;;;;5012254;28;20049;-64
2023/04/17 12:21:51;;;;;;;29.02;14.40;;;13.60;99.90;;;;;;5017799;28;20076;-64
2023/04/17 12:24:18;;;;;;;21.42;12.77;;;13.70;99.90;;;;;;4978821;28;20124;-64
2023/04/17 12:26:48;;;;;;;25.65;12.50;;;13.80;98.00;;;;;;5011788;28;20373;-64
2023/04/17 12:29:15;;;;;;;25.33;13.13;;;13.70;99.90;;;;;;5004411;28;20046;-64
2023/04/17 12:31:41;;;;;;;29.20;12.02;;;13.70;99.90;;;;;;5004456;28;20113;-64
2023/04/17 12:34:07;;;;;;;24.92;13.30;;;13.80;99.90;;;;;;5018874;28;20103;-63
2023/04/17 12:36:34;;;;;;;20.83;12.95;;;13.60;99.50;;;;;;5011472;28;20038;-64
2023/04/17 12:39:00;;;;;;;21.75;11.73;;;13.80;99.90;;;;;;5010215;28;20111;-64
2023/04/17 12:41:26;;;;;;;18.45;11.23;;;13.90;99.90;;;;;;5005989;28;20083;-64